Time;durP1;ratioP1;P1;durP2;ratioP2;P2;SDS_P1;SDS_P2;PMS_P1;PMS_P2;Temp;Humidity;BMP_temperature;BMP_pressure;BME280_temperature;BME280_humidity;BME280_pressure;Samples;Min_cycle;Max_cycle;Signal;HPM_P1;HPM_P2
2021/12/14 00:02:16;;;;;;;25.20;15.02;;;8.40;99.90;;;;;;4972506;28;20042;-80
2021/12/14 00:04:43;;;;;;;28.27;15.48;;;8.50;99.90;;;;;;4987219;28;20114;-80
2021/12/14 00:07:13;;;;;;;32.05;15.68;;;8.30;99.90;;;;;;4972798;28;20092;-80
2021/12/14 00:09:41;;;;;;;27.58;15.98;;;8.40;99.90;;;;;;4991374;28;20049;-80
2021/12/14 00:15:04;;;;;;;23.98;15.10;;;8.30;99.90;;;;;;5013935;28;20061;-80
2021/12/14 00:17:56;;;;;;;24.10;14.75;;;8.30;99.90;;;;;;4989409;28;20138;-80
2021/12/14 00:20:27;;;;;;;23.35;15.43;;;8.40;99.90;;;;;;5004031;28;20049;-80
2021/12/14 00:25:27;;;;;;;23.15;13.65;;;8.40;99.90;;;;;;4990338;28;20133;-80
2021/12/14 00:27:56;;;;;;;23.10;14.95;;;8.40;99.90;;;;;;4983167;28;20057;-80
2021/12/14 00:30:23;;;;;;;22.77;14.88;;;8.40;99.90;;;;;;4987438;28;20039;-80
2021/12/14 00:32:48;;;;;;;22.48;14.93;;;8.40;99.90;;;;;;4989304;28;20041;-80
2021/12/14 00:35:15;;;;;;;24.77;15.02;;;8.40;99.90;;;;;;4988031;28;20041;-80
2021/12/14 00:37:46;;;;;;;22.58;14.05;;;8.40;99.90;;;;;;4996536;28;20049;-80
2021/12/14 00:40:27;;;;;;;22.33;14.95;;;8.40;99.90;;;;;;4989775;28;20406;-80
2021/12/14 00:42:54;;;;;;;23.13;14.73;;;8.40;99.90;;;;;;4974247;28;20057;-80
2021/12/14 00:45:21;;;;;;;21.52;14.05;;;8.40;99.90;;;;;;4990104;28;20129;-80
2021/12/14 00:47:48;;;;;;;20.63;14.98;;;8.40;99.90;;;;;;4984824;28;20066;-80
2021/12/14 00:50:15;;;;;;;21.60;14.90;;;8.40;99.90;;;;;;5008756;28;20041;-81
2021/12/14 00:52:42;;;;;;;23.48;14.45;;;8.90;99.90;;;;;;4980701;28;20132;-79
2021/12/14 00:55:11;;;;;;;28.80;15.20;;;8.30;99.90;;;;;;4974665;28;20175;-79
2021/12/14 00:57:37;;;;;;;21.08;14.30;;;8.40;99.90;;;;;;4970636;28;20074;-78
2021/12/14 01:00:10;;;;;;;21.77;14.63;;;8.50;99.90;;;;;;4987018;28;20048;-78
2021/12/14 01:02:38;;;;;;;22.77;14.05;;;8.40;99.90;;;;;;5011544;28;20042;-79
2021/12/14 01:05:19;;;;;;;24.05;14.85;;;8.40;99.90;;;;;;4960096;28;20069;-78
2021/12/14 01:07:45;;;;;;;21.08;14.13;;;8.40;99.90;;;;;;4991742;28;20045;-79
2021/12/14 01:10:21;;;;;;;22.95;14.52;;;8.40;99.90;;;;;;4991160;28;20253;-78
2021/12/14 01:12:51;;;;;;;22.33;14.07;;;8.40;99.90;;;;;;4988220;28;20050;-79
2021/12/14 01:16:15;;;;;;;24.63;15.40;;;8.30;99.90;;;;;;4975229;28;20057;-79
2021/12/14 01:21:28;;;;;;;24.00;15.00;;;8.40;99.90;;;;;;4989592;28;20491;-79
2021/12/14 01:24:05;;;;;;;20.13;14.85;;;8.30;99.90;;;;;;4976797;28;20045;-79
2021/12/14 01:26:33;;;;;;;21.73;13.93;;;8.50;99.90;;;;;;4974021;28;20621;-79
2021/12/14 01:29:00;;;;;;;21.52;14.75;;;8.30;99.90;;;;;;4988589;28;20107;-79
2021/12/14 01:31:34;;;;;;;22.95;14.65;;;8.30;99.90;;;;;;4989467;28;20062;-80
2021/12/14 01:34:10;;;;;;;20.58;15.05;;;8.30;99.90;;;;;;4988192;28;20084;-79
2021/12/14 01:36:47;;;;;;;25.63;15.25;;;8.40;99.90;;;;;;4988793;28;20042;-79
2021/12/14 01:42:06;;;;;;;22.52;15.80;;;8.40;99.90;;;;;;4987634;28;20136;-79
2021/12/14 01:44:35;;;;;;;23.67;15.30;;;8.30;99.90;;;;;;4976785;28;20160;-79
2021/12/14 01:47:07;;;;;;;23.85;15.27;;;8.30;99.90;;;;;;5011668;28;20183;-79
2021/12/14 01:49:33;;;;;;;22.83;15.02;;;8.30;99.90;;;;;;4993702;28;20045;-79
2021/12/14 01:52:05;;;;;;;25.08;16.55;;;8.30;99.90;;;;;;4994427;28;20430;-80
2021/12/14 01:54:36;;;;;;;27.55;16.55;;;8.40;99.90;;;;;;4991467;28;20124;-80
2021/12/14 01:57:07;;;;;;;22.55;16.20;;;8.30;99.90;;;;;;5009341;28;20030;-80
2021/12/14 01:59:38;;;;;;;25.63;16.35;;;8.30;99.90;;;;;;4994161;28;20186;-79
2021/12/14 02:02:17;;;;;;;23.50;17.20;;;8.30;99.90;;;;;;4992931;28;20042;-79
2021/12/14 02:04:45;;;;;;;23.13;16.45;;;8.30;99.90;;;;;;4991363;28;20512;-80
2021/12/14 02:07:12;;;;;;;25.17;16.73;;;8.30;99.90;;;;;;4976497;28;20045;-79
2021/12/14 02:09:40;;;;;;;25.98;16.50;;;8.30;99.90;;;;;;4991589;28;20069;-79
2021/12/14 02:12:17;;;;;;;22.55;16.48;;;8.40;99.90;;;;;;4991358;28;20072;-79
2021/12/14 02:14:44;;;;;;;30.25;18.48;;;8.40;99.90;;;;;;4994145;28;20056;-80
2021/12/14 02:17:13;;;;;;;26.27;17.95;;;8.30;99.90;;;;;;4995553;28;20137;-79
2021/12/14 02:19:41;;;;;;;25.05;16.58;;;8.20;99.90;;;;;;4998202;28;20124;-79
2021/12/14 02:22:08;;;;;;;26.73;18.85;;;8.30;99.90;;;;;;4980750;28;20180;-80
2021/12/14 02:24:36;;;;;;;29.00;18.85;;;8.40;99.90;;;;;;5016955;28;20050;-79
2021/12/14 02:27:02;;;;;;;27.52;18.70;;;8.40;99.90;;;;;;4994726;28;20039;-79
2021/12/14 02:29:34;;;;;;;33.00;20.02;;;8.30;99.90;;;;;;4995364;28;20124;-79
2021/12/14 02:32:08;;;;;;;25.02;18.50;;;8.70;99.90;;;;;;5012636;28;20050;-79
2021/12/14 02:35:00;;;;;;;26.95;19.10;;;8.30;99.90;;;;;;5015933;28;20155;-79
2021/12/14 02:37:41;;;;;;;32.03;19.33;;;8.30;99.90;;;;;;4978517;28;20078;-79
2021/12/14 02:40:31;;;;;;;31.38;21.40;;;8.20;99.90;;;;;;4998744;28;20037;-79
2021/12/14 02:42:58;;;;;;;32.72;21.25;;;8.20;99.90;;;;;;4983917;28;20068;-79
2021/12/14 02:45:24;;;;;;;33.53;20.42;;;8.20;99.90;;;;;;4978390;28;20041;-79
2021/12/14 02:47:51;;;;;;;38.25;21.73;;;8.20;99.90;;;;;;4999151;28;20038;-79
2021/12/14 02:50:17;;;;;;;32.78;21.88;;;8.10;99.90;;;;;;4980577;28;20042;-79
2021/12/14 02:52:43;;;;;;;33.17;21.30;;;8.20;99.90;;;;;;4996295;28;20396;-79
2021/12/14 02:55:23;;;;;;;31.85;20.75;;;8.20;99.90;;;;;;4991045;28;20045;-80
2021/12/14 02:57:54;;;;;;;31.95;21.13;;;8.20;99.90;;;;;;4978374;28;20084;-79
2021/12/14 03:00:31;;;;;;;33.28;21.60;;;8.20;99.90;;;;;;4989791;28;20088;-77
2021/12/14 03:02:57;;;;;;;29.48;21.13;;;8.20;99.90;;;;;;4991979;28;20365;-79
2021/12/14 03:05:31;;;;;;;32.78;22.02;;;8.20;99.90;;;;;;4962136;28;20040;-79
2021/12/14 03:08:07;;;;;;;30.75;20.75;;;8.20;99.90;;;;;;4991604;28;20042;-79
2021/12/14 03:11:09;;;;;;;34.60;22.60;;;8.20;99.90;;;;;;4977228;28;20088;-79
2021/12/14 03:13:31;;;;;;;34.00;22.48;;;8.20;99.90;;;;;;5010030;28;20121;-79
2021/12/14 03:16:01;;;;;;;35.38;23.27;;;8.20;99.90;;;;;;4976611;28;20462;-79
2021/12/14 03:18:32;;;;;;;32.95;22.05;;;8.30;99.90;;;;;;4993873;28;20112;-79
2021/12/14 03:21:01;;;;;;;35.03;22.77;;;8.20;99.90;;;;;;4993189;28;20048;-79
2021/12/14 03:23:31;;;;;;;31.40;21.30;;;8.10;99.90;;;;;;4993773;28;20076;-79
2021/12/14 03:26:00;;;;;;;36.53;23.15;;;8.10;99.90;;;;;;4975657;28;20049;-79
2021/12/14 03:28:29;;;;;;;34.22;22.85;;;8.10;99.90;;;;;;4990192;28;20053;-79
2021/12/14 03:31:26;;;;;;;36.35;23.50;;;8.20;99.90;;;;;;5006558;28;20042;-79
2021/12/14 03:34:08;;;;;;;36.78;22.67;;;8.10;99.90;;;;;;4992615;28;20065;-79
2021/12/14 03:36:42;;;;;;;34.85;23.55;;;8.10;99.90;;;;;;4977529;28;20033;-79
2021/12/14 03:39:22;;;;;;;36.80;22.92;;;8.10;99.90;;;;;;4993618;28;20120;-79
2021/12/14 03:41:56;;;;;;;33.05;22.98;;;8.20;99.90;;;;;;4992131;28;20404;-79
2021/12/14 03:44:26;;;;;;;34.80;23.60;;;8.10;99.90;;;;;;4992808;28;20109;-79
2021/12/14 03:47:05;;;;;;;42.25;24.50;;;8.20;99.90;;;;;;4993080;28;20054;-79
2021/12/14 03:49:41;;;;;;;35.03;24.83;;;8.20;99.90;;;;;;4991297;28;20092;-79
2021/12/14 03:52:09;;;;;;;36.95;24.33;;;8.10;99.90;;;;;;4993214;28;20054;-79
2021/12/14 03:54:35;;;;;;;36.42;23.90;;;8.10;99.90;;;;;;4991181;28;20453;-79
2021/12/14 03:57:02;;;;;;;36.33;24.33;;;8.10;99.90;;;;;;4991686;28;20057;-79
2021/12/14 03:59:29;;;;;;;37.42;25.30;;;8.10;99.90;;;;;;4968857;28;20042;-79
2021/12/14 04:01:57;;;;;;;39.90;25.10;;;8.10;99.90;;;;;;4992325;28;20124;-79
2021/12/14 04:04:32;;;;;;;35.47;24.88;;;8.10;99.90;;;;;;4990766;28;20041;-79
2021/12/14 04:07:00;;;;;;;41.50;25.77;;;8.10;99.90;;;;;;4992627;28;20120;-79
2021/12/14 04:09:32;;;;;;;37.63;25.30;;;8.10;99.90;;;;;;4975181;28;20037;-79
2021/12/14 04:11:58;;;;;;;39.22;26.27;;;8.10;99.90;;;;;;4992605;28;20046;-79
2021/12/14 04:14:28;;;;;;;40.05;25.83;;;8.40;99.90;;;;;;4995534;28;20060;-79
2021/12/14 04:16:57;;;;;;;39.40;24.75;;;8.20;99.90;;;;;;4991410;28;20045;-79
2021/12/14 04:19:27;;;;;;;37.08;25.83;;;8.20;99.90;;;;;;4988478;28;20156;-79
2021/12/14 04:21:58;;;;;;;43.40;24.98;;;8.10;99.90;;;;;;4991286;28;20139;-79
2021/12/14 04:24:28;;;;;;;36.22;24.20;;;8.10;99.90;;;;;;4992668;28;20042;-79
2021/12/14 04:26:55;;;;;;;40.45;26.40;;;8.10;99.90;;;;;;4975205;28;20069;-79
2021/12/14 04:29:22;;;;;;;39.47;25.85;;;8.10;99.90;;;;;;4981461;28;20072;-79
2021/12/14 04:31:48;;;;;;;37.05;25.08;;;8.20;99.90;;;;;;4988441;28;20046;-79
2021/12/14 04:34:17;;;;;;;41.17;26.80;;;8.10;99.90;;;;;;4988095;28;20046;-79
2021/12/14 04:36:50;;;;;;;39.13;24.08;;;8.10;99.90;;;;;;4990106;28;20077;-79
2021/12/14 04:53:20;;;;;;;41.00;26.73;;;8.10;99.90;;;;;;4988838;28;20093;-79
2021/12/14 04:55:46;;;;;;;47.65;28.83;;;8.50;99.90;;;;;;4974022;28;20131;-79
2021/12/14 04:58:14;;;;;;;44.67;28.55;;;8.10;99.90;;;;;;4989351;28;20053;-79
2021/12/14 05:00:45;;;;;;;46.70;28.70;;;8.10;99.90;;;;;;4972254;28;20497;-79
2021/12/14 05:03:15;;;;;;;48.92;30.70;;;8.00;99.90;;;;;;4990699;28;20050;-79
2021/12/14 05:05:48;;;;;;;47.17;29.48;;;8.00;99.90;;;;;;4985673;28;20044;-79
2021/12/14 05:10:58;;;;;;;45.13;28.90;;;7.90;99.90;;;;;;4984949;28;20076;-79
2021/12/14 05:13:27;;;;;;;48.03;29.60;;;8.00;99.90;;;;;;4990161;28;20475;-79
2021/12/14 05:15:52;;;;;;;45.40;27.70;;;8.00;99.90;;;;;;4988499;28;20177;-79
2021/12/14 05:18:18;;;;;;;45.03;29.48;;;8.00;99.90;;;;;;4992492;28;20167;-79
2021/12/14 05:20:46;;;;;;;45.28;28.83;;;8.00;99.90;;;;;;4993256;28;20458;-79
2021/12/14 05:23:26;;;;;;;47.90;29.42;;;8.60;99.90;;;;;;5012112;28;20120;-82
2021/12/14 05:26:16;;;;;;;47.40;28.70;;;8.00;99.90;;;;;;4995133;28;20049;-79
2021/12/14 05:28:46;;;;;;;50.35;29.40;;;7.70;99.90;;;;;;5009278;28;20385;-78
2021/12/14 05:31:12;;;;;;;48.00;29.38;;;8.00;99.90;;;;;;5004946;28;20456;-78
2021/12/14 05:33:39;;;;;;;50.17;31.13;;;8.00;99.90;;;;;;5006892;28;20038;-79
2021/12/14 05:36:09;;;;;;;53.10;29.73;;;8.00;99.90;;;;;;5023332;28;20036;-79
2021/12/14 05:38:48;;;;;;;61.38;32.30;;;8.00;99.90;;;;;;5005257;28;20041;-77
2021/12/14 05:44:04;;;;;;;57.95;32.15;;;7.90;99.90;;;;;;5003853;28;20056;-78
2021/12/14 05:46:31;;;;;;;54.50;31.75;;;8.00;99.90;;;;;;4988373;28;20063;-78
2021/12/14 05:48:59;;;;;;;56.50;32.22;;;7.90;99.90;;;;;;5009652;28;20377;-79
2021/12/14 05:51:28;;;;;;;57.22;31.60;;;8.00;99.90;;;;;;5010400;28;20116;-78
2021/12/14 05:53:54;;;;;;;58.30;32.10;;;7.90;99.90;;;;;;5011061;28;20481;-79
2021/12/14 05:56:23;;;;;;;57.28;32.65;;;7.90;99.90;;;;;;5011049;28;20480;-78
2021/12/14 05:58:50;;;;;;;57.47;32.78;;;8.10;99.90;;;;;;5008622;28;20041;-78
2021/12/14 06:01:23;;;;;;;53.78;31.60;;;7.90;99.90;;;;;;5009880;28;20053;-79
2021/12/14 06:03:56;;;;;;;58.00;32.00;;;8.00;99.90;;;;;;5008949;28;20127;-78
2021/12/14 06:06:29;;;;;;;51.17;30.58;;;7.90;99.90;;;;;;4994526;28;20049;-78
2021/12/14 06:09:09;;;;;;;55.97;32.30;;;7.90;99.90;;;;;;5005597;28;20049;-78
2021/12/14 06:11:35;;;;;;;52.63;31.65;;;7.90;99.90;;;;;;5005715;28;20038;-77
2021/12/14 06:14:02;;;;;;;57.90;32.58;;;7.90;99.90;;;;;;5005816;28;20041;-78
2021/12/14 06:16:31;;;;;;;53.45;32.78;;;8.00;99.90;;;;;;4995551;28;20043;-78
2021/12/14 06:19:19;;;;;;;56.67;33.40;;;7.90;99.90;;;;;;4981413;28;20030;-78
2021/12/14 06:21:49;;;;;;;57.95;32.70;;;8.00;99.90;;;;;;4981318;28;20037;-78
2021/12/14 06:24:14;;;;;;;53.60;32.83;;;8.00;99.90;;;;;;5006077;28;20128;-78
2021/12/14 06:26:52;;;;;;;56.53;33.47;;;8.00;99.90;;;;;;4996828;28;20510;-78
2021/12/14 06:29:31;;;;;;;56.42;33.47;;;8.00;99.90;;;;;;4981439;28;20045;-78
2021/12/14 06:32:04;;;;;;;54.92;33.13;;;8.00;99.90;;;;;;4995595;28;20050;-77
2021/12/14 06:34:30;;;;;;;59.28;33.55;;;8.00;99.90;;;;;;4991963;28;20042;-78
2021/12/14 06:40:06;;;;;;;62.00;33.20;;;8.00;99.90;;;;;;4947206;28;20106;-78
2021/12/14 06:42:36;;;;;;;57.00;33.58;;;8.00;99.90;;;;;;4954137;28;20116;-79
2021/12/14 06:45:10;;;;;;;60.67;33.75;;;8.00;99.90;;;;;;4947047;28;20051;-78
2021/12/14 06:47:36;;;;;;;62.27;34.70;;;8.00;99.90;;;;;;4966776;28;20058;-78
2021/12/14 06:50:10;;;;;;;52.92;31.58;;;8.00;99.90;;;;;;4969094;28;20206;-79
2021/12/14 06:52:36;;;;;;;60.55;34.72;;;8.00;99.90;;;;;;4945442;28;20328;-77
2021/12/14 06:55:04;;;;;;;60.95;33.78;;;8.00;99.90;;;;;;4952153;28;20151;-78
2021/12/14 06:57:29;;;;;;;59.25;34.30;;;8.00;99.90;;;;;;4955142;28;20053;-79
2021/12/14 06:59:56;;;;;;;58.58;33.88;;;8.30;99.90;;;;;;4953391;28;20047;-79
2021/12/14 07:02:25;;;;;;;57.95;33.58;;;8.00;99.90;;;;;;4960730;28;20050;-80
2021/12/14 07:04:51;;;;;;;55.38;34.58;;;8.00;99.90;;;;;;4957872;28;20073;-80
2021/12/14 07:07:26;;;;;;;57.22;33.40;;;8.20;99.90;;;;;;4955808;28;20063;-80
2021/12/14 07:09:58;;;;;;;57.47;35.13;;;8.10;99.90;;;;;;4955543;28;20384;-79
2021/12/14 07:12:35;;;;;;;64.55;35.92;;;8.10;99.90;;;;;;4959450;28;20422;-79
2021/12/14 07:15:26;;;;;;;67.47;35.80;;;8.00;99.90;;;;;;4950479;28;20051;-77
2021/12/14 07:18:04;;;;;;;64.65;35.13;;;8.00;99.90;;;;;;5007670;28;20057;-79
2021/12/14 07:20:38;;;;;;;64.10;36.20;;;8.10;99.90;;;;;;4991394;28;20057;-77
2021/12/14 07:23:17;;;;;;;66.93;35.95;;;8.10;99.90;;;;;;5011855;28;20140;-78
2021/12/14 07:25:44;;;;;;;70.30;36.67;;;8.00;99.90;;;;;;4991009;28;20053;-78
2021/12/14 07:28:17;;;;;;;63.60;35.38;;;8.10;99.90;;;;;;4978887;28;20057;-78
2021/12/14 07:30:53;;;;;;;71.03;37.70;;;8.00;99.90;;;;;;4996030;28;20054;-78
2021/12/14 07:33:43;;;;;;;65.35;36.58;;;8.00;99.90;;;;;;4973295;28;20038;-81
2021/12/14 07:36:22;;;;;;;76.40;37.65;;;8.10;99.90;;;;;;4996198;28;20058;-81
2021/12/14 07:38:58;;;;;;;68.72;33.83;;;8.10;99.90;;;;;;4983102;28;20033;-77
2021/12/14 07:41:45;;;;;;;69.07;37.72;;;8.10;99.90;;;;;;4967273;28;20401;-81
2021/12/14 07:52:10;;;;;;;86.20;41.38;;;8.10;99.90;;;;;;4920865;29;20059;-80
2021/12/14 07:55:27;;;;;;;82.32;40.38;;;8.20;99.90;;;;;;4911947;28;20075;-79
2021/12/14 08:01:42;;;;;;;84.13;41.20;;;8.00;99.90;;;;;;4892488;29;20040;-76
2021/12/14 08:04:12;;;;;;;94.40;42.78;;;8.10;99.90;;;;;;4890492;29;20156;-76
2021/12/14 08:06:48;;;;;;;84.25;40.30;;;8.00;99.90;;;;;;4876827;29;20123;-77
2021/12/14 08:09:33;;;;;;;95.32;42.38;;;8.10;99.90;;;;;;4892656;29;20052;-76
2021/12/14 08:12:02;;;;;;;87.95;41.45;;;8.10;99.90;;;;;;4878303;29;20112;-78
2021/12/14 08:14:29;;;;;;;90.15;40.85;;;8.20;99.90;;;;;;4872281;29;20057;-77
2021/12/14 08:17:20;;;;;;;87.57;39.95;;;8.10;99.90;;;;;;4889768;29;20048;-78
2021/12/14 08:19:52;;;;;;;81.95;40.20;;;8.10;99.90;;;;;;4891729;29;20088;-77
2021/12/14 08:22:29;;;;;;;93.65;41.88;;;8.10;99.90;;;;;;4898291;29;20527;-77
2021/12/14 08:24:56;;;;;;;80.80;40.30;;;8.10;99.90;;;;;;4864020;29;20080;-76
2021/12/14 08:27:25;;;;;;;84.13;42.10;;;8.10;99.90;;;;;;4891505;29;20524;-76
2021/12/14 08:29:54;;;;;;;87.28;41.90;;;8.20;99.90;;;;;;4934558;29;20419;-76
2021/12/14 08:32:23;;;;;;;91.78;43.42;;;8.10;99.90;;;;;;4918050;29;20304;-77
2021/12/14 08:34:51;;;;;;;86.07;41.00;;;8.20;99.90;;;;;;4974913;28;20046;-78
2021/12/14 08:37:25;;;;;;;96.38;41.28;;;8.20;99.90;;;;;;4988215;28;20054;-77
2021/12/14 08:39:58;;;;;;;82.55;40.50;;;8.20;99.90;;;;;;5006937;28;20038;-78
2021/12/14 08:42:41;;;;;;;95.78;43.78;;;8.20;99.90;;;;;;4991768;28;20512;-78
2021/12/14 08:45:26;;;;;;;89.65;42.38;;;8.20;99.90;;;;;;4986801;28;20054;-78
2021/12/14 08:47:52;;;;;;;;;;;8.20;99.90;;;;;;4971997;28;20100;-78
2021/12/14 08:50:18;;;;;;;91.18;39.80;;;8.30;99.90;;;;;;4977993;28;19921;-78
2021/12/14 08:52:43;;;;;;;84.05;40.40;;;8.30;99.90;;;;;;4977097;28;20506;-79
2021/12/14 08:55:13;;;;;;;83.35;41.38;;;8.30;99.90;;;;;;4989658;28;20243;-77
2021/12/14 08:57:40;;;;;;;88.22;41.00;;;8.30;99.90;;;;;;4983581;28;20050;-76
2021/12/14 09:00:37;;;;;;;90.68;40.17;;;8.30;99.90;;;;;;4985752;28;20062;-80
2021/12/14 09:03:06;;;;;;;85.25;41.17;;;8.30;99.90;;;;;;5008396;28;20100;-81
2021/12/14 09:05:46;;;;;;;88.72;41.95;;;8.90;99.90;;;;;;4989035;28;20049;-82
2021/12/14 09:08:27;;;;;;;83.80;40.97;;;8.70;99.90;;;;;;4974714;28;20092;-81
2021/12/14 09:11:04;;;;;;;86.82;40.40;;;8.30;99.90;;;;;;4973589;28;20045;-80
2021/12/14 09:13:36;;;;;;;89.78;43.25;;;8.30;99.90;;;;;;4974294;28;20037;-80
2021/12/14 09:16:26;;;;;;;87.80;41.90;;;8.30;99.90;;;;;;5002140;28;20049;-82
2021/12/14 09:19:43;;;;;;;85.18;39.42;;;8.30;99.90;;;;;;5008856;28;20130;-82
2021/12/14 09:22:17;;;;;;;88.50;40.50;;;8.30;99.90;;;;;;4988509;28;20053;-81
2021/12/14 09:24:44;;;;;;;92.95;42.55;;;8.80;99.90;;;;;;5007763;28;21688;-80
2021/12/14 09:27:16;;;;;;;94.15;40.33;;;9.10;99.90;;;;;;5007538;28;20070;-78
2021/12/14 09:29:42;;;;;;;91.03;43.30;;;8.60;99.90;;;;;;5004246;28;20134;-79
2021/12/14 09:32:11;;;;;;;98.20;43.58;;;8.40;99.90;;;;;;4986999;28;20053;-82
2021/12/14 09:34:39;;;;;;;88.38;42.85;;;8.40;99.90;;;;;;4987857;28;20374;-79
2021/12/14 09:37:10;;;;;;;100.13;43.35;;;8.40;99.90;;;;;;5007674;28;20049;-79
2021/12/14 09:39:45;;;;;;;90.30;43.75;;;8.50;99.90;;;;;;5012100;28;20065;-84
2021/12/14 09:42:16;;;;;;;81.10;41.92;;;8.50;99.90;;;;;;5001009;28;20496;-84
2021/12/14 09:45:21;;;;;;;82.60;40.25;;;8.60;99.90;;;;;;4994221;28;20054;-80
2021/12/14 09:47:47;;;;;;;88.10;41.47;;;8.50;99.90;;;;;;5010939;28;20053;-81
2021/12/14 09:50:20;;;;;;;85.00;41.42;;;8.50;99.90;;;;;;5012953;28;20037;-81
2021/12/14 09:52:48;;;;;;;85.55;40.47;;;8.60;99.90;;;;;;4985085;28;20045;-80
2021/12/14 09:55:22;;;;;;;77.57;41.53;;;8.60;99.90;;;;;;5007306;28;20124;-81
2021/12/14 09:57:55;;;;;;;;;;;8.60;99.90;;;;;;5003481;28;20060;-80
2021/12/14 10:00:28;;;;;;;86.97;39.92;;;8.50;99.90;;;;;;5004278;28;19921;-81
2021/12/14 10:02:55;;;;;;;88.35;42.78;;;8.60;99.90;;;;;;5000237;28;20532;-80
2021/12/14 10:05:30;;;;;;;91.15;42.15;;;8.50;99.90;;;;;;5009130;28;20045;-80
2021/12/14 10:07:58;;;;;;;82.40;40.85;;;8.60;99.90;;;;;;4998811;28;20056;-81
2021/12/14 10:10:25;;;;;;;85.53;41.55;;;8.60;99.90;;;;;;5013044;28;20053;-80
2021/12/14 10:12:55;;;;;;;85.05;41.38;;;8.60;99.90;;;;;;4998360;28;20100;-80
2021/12/14 10:15:38;;;;;;;85.80;41.20;;;8.60;99.90;;;;;;5014233;28;20123;-81
2021/12/14 10:18:14;;;;;;;83.75;41.08;;;8.60;99.90;;;;;;5032653;28;20117;-81
2021/12/14 10:20:51;;;;;;;89.25;41.25;;;8.60;99.90;;;;;;5012561;28;21382;-81
2021/12/14 10:23:18;;;;;;;84.35;40.08;;;8.60;99.90;;;;;;5001566;28;20535;-80
2021/12/14 10:25:45;;;;;;;89.65;41.85;;;8.60;99.90;;;;;;5015342;28;20045;-80
2021/12/14 10:28:12;;;;;;;89.55;42.53;;;8.60;99.90;;;;;;5009396;28;20065;-81
2021/12/14 10:30:54;;;;;;;87.75;42.55;;;8.60;99.90;;;;;;4994855;28;20061;-82
2021/12/14 10:33:21;;;;;;;89.03;41.58;;;8.40;99.90;;;;;;4998570;28;20096;-82
2021/12/14 10:35:51;;;;;;;87.82;39.55;;;8.50;99.90;;;;;;5014072;28;20448;-82
2021/12/14 10:38:36;;;;;;;88.90;40.45;;;8.50;99.90;;;;;;5012697;28;20051;-82
2021/12/14 10:44:16;;;;;;;84.50;39.58;;;8.60;99.90;;;;;;5013759;28;20037;-81
2021/12/14 10:46:46;;;;;;;83.47;38.97;;;9.20;99.90;;;;;;5013100;28;20076;-82
2021/12/14 10:49:48;;;;;;;83.35;39.78;;;8.80;99.90;;;;;;4995597;28;20061;-87
2021/12/14 10:52:19;;;;;;;77.78;36.92;;;8.70;99.90;;;;;;5010402;28;20108;-82
2021/12/14 10:54:48;;;;;;;86.50;38.40;;;8.70;99.90;;;;;;4996454;28;20050;-81
2021/12/14 10:57:18;;;;;;;83.55;38.92;;;8.70;99.90;;;;;;5012760;28;20090;-83
2021/12/14 10:59:46;;;;;;;79.75;37.38;;;8.80;99.90;;;;;;5011542;28;20064;-84
2021/12/14 11:02:12;;;;;;;73.35;36.72;;;9.20;99.90;;;;;;5030145;28;20042;-82
2021/12/14 11:04:54;;;;;;;73.80;35.28;;;8.90;99.90;;;;;;5013637;28;20053;-82
2021/12/14 11:07:40;;;;;;;73.55;35.15;;;9.40;99.90;;;;;;5028873;28;20162;-83
2021/12/14 11:10:24;;;;;;;76.30;34.90;;;8.80;99.90;;;;;;4992608;28;20073;-84
2021/12/14 11:13:01;;;;;;;75.15;37.03;;;8.80;99.90;;;;;;5011056;28;20049;-81
2021/12/14 11:15:35;;;;;;;79.65;36.03;;;8.80;99.90;;;;;;5019029;28;20133;-83
2021/12/14 11:18:08;;;;;;;72.75;35.00;;;9.20;99.90;;;;;;5025005;28;20049;-80
2021/12/14 11:20:37;;;;;;;73.28;34.58;;;8.90;99.90;;;;;;5012258;28;20041;-80
2021/12/14 11:23:35;;;;;;;70.53;35.80;;;8.90;99.90;;;;;;5011837;28;20069;-79
2021/12/14 11:26:06;;;;;;;73.35;34.75;;;8.90;99.90;;;;;;4953190;28;20058;-84
2021/12/14 11:28:33;;;;;;;68.82;34.00;;;8.90;99.90;;;;;;4952598;28;20523;-80
2021/12/14 11:31:05;;;;;;;76.38;34.50;;;9.00;99.90;;;;;;4959083;28;20124;-78
2021/12/14 11:33:42;;;;;;;68.97;32.10;;;8.90;99.90;;;;;;4958138;28;20046;-82
2021/12/14 11:36:22;;;;;;;74.20;35.05;;;9.00;99.90;;;;;;4960016;28;20053;-80
2021/12/14 11:39:02;;;;;;;69.97;32.65;;;8.90;99.90;;;;;;4971161;28;20141;-78
2021/12/14 11:41:33;;;;;;;67.20;31.33;;;8.90;99.90;;;;;;4981992;28;20050;-79
2021/12/14 11:44:08;;;;;;;69.95;32.03;;;8.90;99.90;;;;;;4971475;28;20050;-79
2021/12/14 11:46:45;;;;;;;;;;;8.90;99.90;;;;;;4958383;28;20058;-78
2021/12/14 11:49:11;;;;;;;71.38;30.88;;;8.90;99.90;;;;;;4982959;28;20056;-77
2021/12/14 11:51:38;;;;;;;65.80;30.40;;;8.90;99.90;;;;;;4976475;28;20886;-79
2021/12/14 11:54:18;;;;;;;67.38;30.73;;;8.90;99.90;;;;;;4974638;28;20117;-82
2021/12/14 11:56:43;;;;;;;59.83;29.92;;;8.90;99.90;;;;;;4983417;28;20034;-83
2021/12/14 11:59:10;;;;;;;63.60;28.75;;;9.00;99.90;;;;;;4969700;28;20113;-82
2021/12/14 12:01:48;;;;;;;61.58;28.70;;;8.90;99.90;;;;;;4990394;28;20151;-81
2021/12/14 12:04:20;;;;;;;66.28;30.58;;;8.90;99.90;;;;;;5009887;28;20132;-82
2021/12/14 12:12:27;;;;;;;61.80;27.67;;;8.90;99.90;;;;;;4982518;28;20037;-82
2021/12/14 12:15:00;;;;;;;68.90;28.92;;;9.00;99.90;;;;;;4993841;28;20437;-83
2021/12/14 12:17:37;;;;;;;62.22;27.42;;;8.90;99.90;;;;;;5010679;28;20533;-83
2021/12/14 12:20:15;;;;;;;58.58;27.55;;;9.00;99.90;;;;;;4993921;28;20045;-83
2021/12/14 12:23:00;;;;;;;60.75;27.02;;;9.00;99.90;;;;;;4990525;28;20139;-82
2021/12/14 12:25:31;;;;;;;;;;;9.00;99.90;;;;;;4986009;28;20058;-83
2021/12/14 12:28:10;;;;;;;64.30;25.27;;;9.00;99.90;;;;;;4993044;28;20040;-82
2021/12/14 12:30:47;;;;;;;57.25;24.42;;;9.00;99.90;;;;;;4991825;28;20061;-82
2021/12/14 12:33:28;;;;;;;54.42;22.52;;;9.00;99.90;;;;;;4976742;28;20085;-82
2021/12/14 12:36:06;;;;;;;51.45;22.67;;;9.00;99.90;;;;;;4994087;28;20045;-83
2021/12/14 12:38:41;;;;;;;61.22;23.90;;;9.10;99.90;;;;;;4991404;28;20041;-82
2021/12/14 12:41:17;;;;;;;50.75;23.55;;;9.10;99.90;;;;;;4990082;28;20525;-81
2021/12/14 12:43:49;;;;;;;53.38;21.83;;;9.40;99.90;;;;;;4991939;28;20056;-82
2021/12/14 12:46:24;;;;;;;51.20;21.95;;;9.10;99.90;;;;;;4991375;28;20046;-79
2021/12/14 12:49:00;;;;;;;48.50;21.23;;;9.10;99.90;;;;;;5016651;28;20496;-78
2021/12/14 12:51:39;;;;;;;56.22;22.60;;;9.10;99.90;;;;;;5015991;28;20089;-77
2021/12/14 12:54:11;;;;;;;57.75;22.67;;;9.10;99.90;;;;;;5001829;28;20499;-78
2021/12/14 12:56:38;;;;;;;48.90;21.50;;;9.30;99.90;;;;;;5009256;28;20045;-80
2021/12/14 12:59:06;;;;;;;47.60;21.15;;;9.10;99.90;;;;;;5008259;28;20053;-80
2021/12/14 13:01:32;;;;;;;50.92;22.05;;;9.10;99.90;;;;;;5007603;28;20053;-80
2021/12/14 13:03:58;;;;;;;51.53;21.38;;;9.20;99.90;;;;;;5008651;28;20130;-79
2021/12/14 13:06:24;;;;;;;48.85;22.15;;;9.20;99.90;;;;;;5028296;28;20033;-77
2021/12/14 13:08:55;;;;;;;55.78;21.02;;;9.20;99.90;;;;;;5000565;28;20044;-79
2021/12/14 13:11:36;;;;;;;40.28;18.48;;;9.20;99.90;;;;;;5004801;28;21916;-79
2021/12/14 13:14:12;;;;;;;41.05;19.30;;;9.40;99.90;;;;;;5018865;28;20037;-77
2021/12/14 13:16:44;;;;;;;43.35;19.48;;;9.20;99.90;;;;;;5003977;28;20107;-79
2021/12/14 13:19:17;;;;;;;45.30;19.80;;;9.20;99.90;;;;;;4976090;28;20498;-78
2021/12/14 13:22:04;;;;;;;40.55;18.20;;;9.20;99.90;;;;;;4974061;28;20531;-80
2021/12/14 13:24:35;;;;;;;36.55;16.73;;;9.20;99.90;;;;;;5018314;28;20044;-81
2021/12/14 13:27:14;;;;;;;37.78;17.65;;;9.20;99.90;;;;;;5040316;28;20037;-82
2021/12/14 13:29:56;;;;;;;32.70;16.17;;;9.20;99.90;;;;;;5025058;28;20033;-78
2021/12/14 13:32:38;;;;;;;33.13;15.57;;;9.80;99.90;;;;;;5010287;28;20061;-83
2021/12/14 13:35:15;;;;;;;34.92;15.80;;;9.20;99.90;;;;;;5010817;28;20068;-80
2021/12/14 13:37:49;;;;;;;34.00;15.90;;;9.20;99.90;;;;;;5012413;28;20206;-80
2021/12/14 13:40:19;;;;;;;38.33;16.48;;;9.20;99.90;;;;;;5011171;28;20041;-77
2021/12/14 13:42:58;;;;;;;33.40;15.95;;;9.40;99.90;;;;;;5011526;28;20343;-78
2021/12/14 13:45:34;;;;;;;39.92;16.95;;;9.30;99.90;;;;;;5007101;28;20061;-80
2021/12/14 13:48:02;;;;;;;32.00;16.40;;;9.20;99.90;;;;;;5007808;28;20057;-78
2021/12/14 13:50:33;;;;;;;42.22;16.38;;;9.20;99.90;;;;;;5006580;28;20111;-80
2021/12/14 13:53:00;;;;;;;32.05;14.93;;;9.20;99.90;;;;;;4992307;28;20053;-80
2021/12/14 13:55:34;;;;;;;37.90;17.73;;;9.30;99.90;;;;;;5010300;28;20073;-82
2021/12/14 13:58:18;;;;;;;35.05;17.35;;;9.30;99.90;;;;;;5005736;28;20049;-82
2021/12/14 14:00:57;;;;;;;38.13;18.15;;;9.30;99.90;;;;;;5007782;28;20405;-78
2021/12/14 14:03:33;;;;;;;36.78;18.52;;;9.90;99.90;;;;;;5006737;28;20104;-79